Time;durP1;ratioP1;P1;durP2;ratioP2;P2;SDS_P1;SDS_P2;PMS_P1;PMS_P2;Temp;Humidity;BMP_temperature;BMP_pressure;BME280_temperature;BME280_humidity;BME280_pressure;Samples;Min_cycle;Max_cycle;Signal;HPM_P1;HPM_P2
2022/03/05 00:08:58;;;;;;;;;51.00;34.00;;;;;;;;2;261078314;261078314;-79
2022/03/05 00:17:14;;;;;;;;;34.50;29.50;;;;;;;;2;261077823;261077823;-80
2022/03/05 00:29:34;;;;;;;;;53.50;32.50;;;;;;;;2;261077867;261077867;-79
2022/03/05 00:37:49;;;;;;;;;54.00;29.50;;;;;;;;2;261075635;261075635;-79
2022/03/05 00:46:49;;;;;;;;;49.50;32.50;;;;;;;;2;261076635;261076635;-78
2022/03/05 00:55:05;;;;;;;;;38.00;30.50;;;;;;;;2;261076226;261076226;-79
2022/03/05 01:04:06;;;;;;;;;26.50;26.00;;;;;;;;2;261076853;261076853;-81
2022/03/05 01:12:22;;;;;;;;;36.00;30.50;;;;;;;;2;261077108;261077108;-80
2022/03/05 01:21:22;;;;;;;;;29.50;24.50;;;;;;;;2;261080398;261080398;-81
2022/03/05 01:29:38;;;;;;;;;33.50;22.00;;;;;;;;2;261078659;261078659;-80
2022/03/05 01:38:38;;;;;;;;;45.00;32.50;;;;;;;;2;261075781;261075781;-80
2022/03/05 01:46:54;;;;;;;;;30.50;30.00;;;;;;;;2;261079522;261079522;-80
2022/03/05 01:55:54;;;;;;;;;32.50;24.00;;;;;;;;2;261079105;261079105;-80
2022/03/05 02:04:09;;;;;;;;;49.50;33.50;;;;;;;;2;261077457;261077457;-80
2022/03/05 02:13:10;;;;;;;;;48.50;34.50;;;;;;;;2;261077315;261077315;-79
2022/03/05 02:21:26;;;;;;;;;38.50;23.00;;;;;;;;2;261077045;261077045;-80
2022/03/05 02:30:26;;;;;;;;;32.00;27.00;;;;;;;;2;261076042;261076042;-81
2022/03/05 02:38:42;;;;;;;;;49.00;27.50;;;;;;;;2;261081870;261081870;-81
2022/03/05 02:47:42;;;;;;;;;31.50;26.50;;;;;;;;2;261078392;261078392;-81
2022/03/05 02:55:58;;;;;;;;;48.00;31.00;;;;;;;;2;261075910;261075910;-81
2022/03/05 03:04:58;;;;;;;;;35.50;30.00;;;;;;;;2;261074938;261074938;-80
2022/03/05 03:13:13;;;;;;;;;39.00;29.00;;;;;;;;2;261075529;261075529;-81
2022/03/05 03:22:14;;;;;;;;;28.50;23.50;;;;;;;;2;261075641;261075641;-81
2022/03/05 03:30:30;;;;;;;;;50.00;30.50;;;;;;;;2;261074568;261074568;-81
2022/03/05 03:39:30;;;;;;;;;48.00;25.50;;;;;;;;2;261077183;261077183;-81
2022/03/05 03:47:47;;;;;;;;;32.00;27.00;;;;;;;;2;261076266;261076266;-80
2022/03/05 03:56:47;;;;;;;;;33.00;26.50;;;;;;;;2;261076930;261076930;-80
2022/03/05 04:05:03;;;;;;;;;41.00;26.00;;;;;;;;2;261077029;261077029;-80
2022/03/05 04:14:04;;;;;;;;;37.50;25.00;;;;;;;;2;261075354;261075354;-80
2022/03/05 04:22:19;;;;;;;;;32.00;27.00;;;;;;;;2;261077233;261077233;-80
2022/03/05 04:31:20;;;;;;;;;34.00;32.00;;;;;;;;2;261075443;261075443;-80
2022/03/05 04:39:35;;;;;;;;;35.00;33.00;;;;;;;;2;261077108;261077108;-79
2022/03/05 04:48:35;;;;;;;;;36.00;24.50;;;;;;;;2;261074717;261074717;-80
2022/03/05 04:56:51;;;;;;;;;34.00;23.00;;;;;;;;2;261078009;261078009;-80
2022/03/05 05:05:51;;;;;;;;;41.50;28.00;;;;;;;;2;261077393;261077393;-80
2022/03/05 05:14:07;;;;;;;;;37.50;25.50;;;;;;;;2;261073768;261073768;-80
2022/03/05 05:23:07;;;;;;;;;21.00;21.00;;;;;;;;2;261076637;261076637;-80
2022/03/05 05:31:22;;;;;;;;;47.50;31.50;;;;;;;;2;261080151;261080151;-80
2022/03/05 05:40:23;;;;;;;;;34.00;32.00;;;;;;;;2;261077298;261077298;-80
2022/03/05 05:48:38;;;;;;;;;43.00;27.00;;;;;;;;2;261076623;261076623;-80
2022/03/05 05:57:39;;;;;;;;;44.50;28.50;;;;;;;;2;261076501;261076501;-80
2022/03/05 06:05:56;;;;;;;;;36.00;33.50;;;;;;;;2;261077941;261077941;-80
2022/03/05 06:14:57;;;;;;;;;49.50;35.50;;;;;;;;2;261075444;261075444;-80
2022/03/05 06:23:12;;;;;;;;;49.00;32.00;;;;;;;;2;261078004;261078004;-80
2022/03/05 06:32:12;;;;;;;;;36.00;28.00;;;;;;;;2;261077827;261077827;-80
2022/03/05 06:40:28;;;;;;;;;32.50;29.00;;;;;;;;2;261074358;261074358;-79
2022/03/05 06:49:28;;;;;;;;;26.50;22.50;;;;;;;;2;261078945;261078945;-79
2022/03/05 06:57:44;;;;;;;;;41.00;28.50;;;;;;;;2;261077543;261077543;-79
2022/03/05 07:06:44;;;;;;;;;26.50;26.50;;;;;;;;2;261074679;261074679;-79
2022/03/05 07:15:01;;;;;;;;;39.50;30.00;;;;;;;;2;261076887;261076887;-79
2022/03/05 07:24:02;;;;;;;;;41.50;25.00;;;;;;;;2;261078107;261078107;-79
2022/03/05 07:32:17;;;;;;;;;30.00;21.00;;;;;;;;2;261075318;261075318;-79
2022/03/05 07:41:18;;;;;;;;;26.50;26.50;;;;;;;;2;261078138;261078138;-79
2022/03/05 07:49:34;;;;;;;;;31.50;21.00;;;;;;;;2;261078398;261078398;-80
2022/03/05 07:58:34;;;;;;;;;44.00;28.50;;;;;;;;2;261074602;261074602;-80
2022/03/05 08:06:49;;;;;;;;;32.50;31.00;;;;;;;;2;261078168;261078168;-80
2022/03/05 08:15:51;;;;;;;;;26.50;26.50;;;;;;;;2;261075531;261075531;-80
2022/03/05 08:24:06;;;;;;;;;24.00;21.00;;;;;;;;2;261083179;261083179;-80
2022/03/05 08:33:06;;;;;;;;;43.00;27.00;;;;;;;;2;261078946;261078946;-80
2022/03/05 08:41:22;;;;;;;;;30.00;21.00;;;;;;;;2;261080174;261080174;-79
2022/03/05 08:50:22;;;;;;;;;33.00;21.50;;;;;;;;2;261075714;261075714;-77
2022/03/05 08:58:38;;;;;;;;;47.50;41.00;;;;;;;;2;261078219;261078219;-77
2022/03/05 09:07:38;;;;;;;;;27.50;27.00;;;;;;;;2;261075729;261075729;-78
2022/03/05 09:15:54;;;;;;;;;41.50;32.00;;;;;;;;2;261074181;261074181;-79
2022/03/05 09:24:54;;;;;;;;;57.00;33.00;;;;;;;;2;261078897;261078897;-80
2022/03/05 09:33:11;;;;;;;;;28.50;27.50;;;;;;;;2;261078282;261078282;-79
2022/03/05 09:42:11;;;;;;;;;52.50;33.50;;;;;;;;2;261076843;261076843;-79
2022/03/05 09:50:28;;;;;;;;;22.00;20.50;;;;;;;;2;261079691;261079691;-80
2022/03/05 09:59:29;;;;;;;;;50.50;35.50;;;;;;;;2;261075594;261075594;-78
2022/03/05 10:08:00;;;;;;;;;42.00;36.50;;;;;;;;2;261076735;261076735;-78
2022/03/05 10:17:01;;;;;;;;;34.00;30.00;;;;;;;;2;261078299;261078299;-78
2022/03/05 10:25:16;;;;;;;;;43.50;28.00;;;;;;;;2;261076004;261076004;-78
2022/03/05 10:34:16;;;;;;;;;26.50;24.50;;;;;;;;2;261079799;261079799;-78
2022/03/05 10:42:37;;;;;;;;;27.00;26.50;;;;;;;;2;261079219;261079219;-78
2022/03/05 10:51:37;;;;;;;;;27.00;26.50;;;;;;;;2;261076966;261076966;-78
2022/03/05 10:59:55;;;;;;;;;40.50;32.50;;;;;;;;2;261077868;261077868;-78
2022/03/05 11:08:56;;;;;;;;;49.50;33.00;;;;;;;;2;261079365;261079365;-78
2022/03/05 11:17:11;;;;;;;;;26.00;25.50;;;;;;;;2;261075907;261075907;-78
2022/03/05 11:26:13;;;;;;;;;53.00;39.50;;;;;;;;2;261072783;261072783;-78
2022/03/05 11:34:41;;;;;;;;;41.00;33.50;;;;;;;;2;261077180;261077180;-78
2022/03/05 11:43:42;;;;;;;;;55.00;36.00;;;;;;;;2;261076047;261076047;-78
2022/03/05 11:51:59;;;;;;;;;45.50;30.50;;;;;;;;2;261074468;261074468;-79
2022/03/05 12:01:20;;;;;;;;;35.50;29.00;;;;;;;;2;261077775;261077775;-79
2022/03/05 12:09:36;;;;;;;;;52.50;36.50;;;;;;;;2;261075752;261075752;-78
2022/03/05 12:18:39;;;;;;;;;40.50;30.00;;;;;;;;2;261077428;261077428;-77
2022/03/05 12:26:56;;;;;;;;;32.50;31.00;;;;;;;;2;261078789;261078789;-78
2022/03/05 12:35:57;;;;;;;;;53.00;32.50;;;;;;;;2;261074221;261074221;-78
2022/03/05 12:44:12;;;;;;;;;28.00;25.00;;;;;;;;2;261073169;261073169;-78
2022/03/05 12:53:17;;;;;;;;;23.50;22.00;;;;;;;;2;261075870;261075870;-78
2022/03/05 13:01:32;;;;;;;;;39.00;27.00;;;;;;;;2;261078349;261078349;-78
2022/03/05 13:10:33;;;;;;;;;35.50;26.50;;;;;;;;2;261074922;261074922;-79
2022/03/05 13:18:54;;;;;;;;;59.50;26.50;;;;;;;;2;261078950;261078950;-80
2022/03/05 13:27:56;;;;;;;;;35.00;23.00;;;;;;;;2;261078085;261078085;-80
2022/03/05 13:36:19;;;;;;;;;29.00;28.00;;;;;;;;2;261081465;261081465;-80
2022/03/05 13:45:24;;;;;;;;;25.00;25.00;;;;;;;;2;261080062;261080062;-81
2022/03/05 13:53:43;;;;;;;;;28.50;27.00;;;;;;;;2;261078337;261078337;-81
2022/03/05 14:02:44;;;;;;;;;25.50;25.50;;;;;;;;2;261078932;261078932;-81
2022/03/05 14:10:59;;;;;;;;;56.00;32.00;;;;;;;;2;261075865;261075865;-80
2022/03/05 14:20:09;;;;;;;;;32.50;31.50;;;;;;;;2;261081273;261081273;-80
2022/03/05 14:28:27;;;;;;;;;45.50;26.50;;;;;;;;2;261076559;261076559;-79
2022/03/05 14:37:27;;;;;;;;;34.50;30.50;;;;;;;;2;261077471;261077471;-80
2022/03/05 14:45:43;;;;;;;;;53.00;40.50;;;;;;;;2;261079943;261079943;-79
2022/03/05 14:54:44;;;;;;;;;42.00;28.50;;;;;;;;2;261077581;261077581;-80
2022/03/05 15:02:59;;;;;;;;;59.00;37.00;;;;;;;;2;261077484;261077484;-80
2022/03/05 15:12:00;;;;;;;;;27.50;24.00;;;;;;;;2;261074366;261074366;-81
2022/03/05 15:20:15;;;;;;;;;43.00;33.00;;;;;;;;2;261075993;261075993;-80
2022/03/05 15:29:26;;;;;;;;;;;;;;;;;;;;;
2022/03/05 15:37:42;;;;;;;;;33.00;27.00;;;;;;;;2;261105034;261105034;-80
2022/03/05 15:46:42;;;;;;;;;52.00;37.50;;;;;;;;2;261077760;261077760;-80
2022/03/05 15:54:58;;;;;;;;;32.00;27.50;;;;;;;;2;261080467;261080467;-80
2022/03/05 16:04:01;;;;;;;;;31.50;30.50;;;;;;;;2;261081437;261081437;-79
2022/03/05 16:12:17;;;;;;;;;43.00;36.50;;;;;;;;2;261080253;261080253;-79
2022/03/05 16:21:18;;;;;;;;;37.50;34.50;;;;;;;;2;261079764;261079764;-79
2022/03/05 16:29:33;;;;;;;;;52.50;35.50;;;;;;;;2;261078338;261078338;-79
2022/03/05 16:38:35;;;;;;;;;36.50;30.00;;;;;;;;2;261077613;261077613;-79
2022/03/05 16:46:50;;;;;;;;;46.00;34.50;;;;;;;;2;261075824;261075824;-79
2022/03/05 16:55:51;;;;;;;;;58.50;36.00;;;;;;;;2;261081296;261081296;-76
2022/03/05 17:04:07;;;;;;;;;38.00;34.50;;;;;;;;2;261077435;261077435;-79
2022/03/05 17:13:07;;;;;;;;;42.50;32.00;;;;;;;;2;261074522;261074522;-81
2022/03/05 17:21:22;;;;;;;;;50.50;34.00;;;;;;;;2;261078195;261078195;-79
2022/03/05 17:30:23;;;;;;;;;53.00;39.50;;;;;;;;2;261074472;261074472;-80
2022/03/05 17:38:38;;;;;;;;;36.00;30.50;;;;;;;;2;261073335;261073335;-80
2022/03/05 17:47:42;;;;;;;;;43.00;36.00;;;;;;;;2;261076580;261076580;-81
2022/03/05 17:55:57;;;;;;;;;50.00;38.00;;;;;;;;2;261076586;261076586;-79
2022/03/05 18:04:58;;;;;;;;;35.50;30.50;;;;;;;;2;261081798;261081798;-80
2022/03/05 18:13:13;;;;;;;;;47.00;35.50;;;;;;;;2;261076953;261076953;-80
2022/03/05 18:22:14;;;;;;;;;47.50;41.00;;;;;;;;2;261079264;261079264;-80
2022/03/05 18:30:29;;;;;;;;;50.50;42.00;;;;;;;;2;261080558;261080558;-81
2022/03/05 18:39:30;;;;;;;;;50.50;43.00;;;;;;;;2;261078444;261078444;-79
2022/03/05 18:47:45;;;;;;;;;54.50;36.00;;;;;;;;2;261077770;261077770;-80
2022/03/05 18:56:47;;;;;;;;;56.50;39.50;;;;;;;;2;261084569;261084569;-78
2022/03/05 19:05:03;;;;;;;;;61.00;42.00;;;;;;;;2;261084157;261084157;-79
2022/03/05 19:14:04;;;;;;;;;71.00;51.00;;;;;;;;2;261081717;261081717;-78
2022/03/05 19:22:19;;;;;;;;;66.00;44.00;;;;;;;;2;261077918;261077918;-78
2022/03/05 19:31:20;;;;;;;;;71.50;48.00;;;;;;;;2;261088815;261088815;-78
2022/03/05 19:39:35;;;;;;;;;66.50;46.50;;;;;;;;2;261089694;261089694;-80
2022/03/05 19:48:35;;;;;;;;;67.00;46.00;;;;;;;;2;261082746;261082746;-79
2022/03/05 19:56:52;;;;;;;;;24.00;12.50;;;;;;;;2;261082208;261082208;-80
2022/03/05 20:05:52;;;;;;;;;71.00;49.50;;;;;;;;2;261080389;261080389;-80
2022/03/05 20:14:08;;;;;;;;;74.00;48.50;;;;;;;;2;261080021;261080021;-80
2022/03/05 20:23:08;;;;;;;;;69.50;48.50;;;;;;;;2;261081527;261081527;-80
2022/03/05 20:31:24;;;;;;;;;86.00;83.00;;;;;;;;2;261081627;261081627;-79
2022/03/05 20:40:25;;;;;;;;;65.00;49.50;;;;;;;;2;261082592;261082592;-80
2022/03/05 20:48:40;;;;;;;;;67.50;47.50;;;;;;;;2;261082123;261082123;-80
2022/03/05 20:57:40;;;;;;;;;57.50;43.00;;;;;;;;2;261080879;261080879;-80
2022/03/05 21:05:59;;;;;;;;;74.00;53.50;;;;;;;;2;261081786;261081786;-81
2022/03/05 21:15:00;;;;;;;;;66.50;50.50;;;;;;;;2;261080224;261080224;-81
2022/03/05 21:23:16;;;;;;;;;95.50;61.50;;;;;;;;2;261076822;261076822;-82
2022/03/05 21:32:16;;;;;;;;;77.00;69.50;;;;;;;;2;261094756;261094756;-82
2022/03/05 21:40:32;;;;;;;;;72.00;52.00;;;;;;;;2;261085548;261085548;-81
2022/03/05 21:49:32;;;;;;;;;77.00;58.50;;;;;;;;2;261080001;261080001;-82
2022/03/05 21:57:52;;;;;;;;;73.00;59.00;;;;;;;;2;261081503;261081503;-81
2022/03/05 22:06:53;;;;;;;;;74.50;56.50;;;;;;;;2;261079910;261079910;-82
2022/03/05 22:15:10;;;;;;;;;75.00;57.00;;;;;;;;2;261079090;261079090;-81
2022/03/05 22:24:11;;;;;;;;;85.00;53.50;;;;;;;;2;261087313;261087313;-82
2022/03/05 22:32:27;;;;;;;;;82.50;58.00;;;;;;;;2;261083811;261083811;-82
2022/03/05 22:41:28;;;;;;;;;106.00;62.50;;;;;;;;2;261081548;261081548;-81
2022/03/05 22:49:44;;;;;;;;;70.50;55.00;;;;;;;;2;261081094;261081094;-83
2022/03/05 22:58:44;;;;;;;;;68.50;50.00;;;;;;;;2;261083143;261083143;-81
2022/03/05 23:16:19;;;;;;;;;97.00;59.00;;;;;;;;2;261081001;261081001;-80
2022/03/05 23:24:34;;;;;;;;;85.00;64.00;;;;;;;;2;261078549;261078549;-81
2022/03/05 23:33:35;;;;;;;;;77.00;50.00;;;;;;;;2;261083424;261083424;-81
2022/03/05 23:41:50;;;;;;;;;78.50;53.50;;;;;;;;2;261084823;261084823;-81
2022/03/05 23:50:51;;;;;;;;;72.50;60.00;;;;;;;;2;261082397;261082397;-80
2022/03/05 23:59:07;;;;;;;;;84.50;49.50;;;;;;;;2;261078949;261078949;-80
